Time;durP1;ratioP1;P1;durP2;ratioP2;P2;SDS_P1;SDS_P2;PMS_P1;PMS_P2;Temp;Humidity;BMP_temperature;BMP_pressure;BME280_temperature;BME280_humidity;BME280_pressure;Samples;Min_cycle;Max_cycle;Signal;HPM_P1;HPM_P2
2023/07/15 00:02:17;;;;;;;6.90;4.07;;;;;;;;;;6339962;22;20003;-93
2023/07/15 00:04:46;;;;;;;6.50;3.78;;;;;;;;;;6341098;22;20007;-92
2023/07/15 00:07:15;;;;;;;7.95;3.97;;;;;;;;;;6341066;22;20003;-93
2023/07/15 00:09:47;;;;;;;8.70;3.75;;;;;;;;;;6340771;22;20468;-93
2023/07/15 00:12:16;;;;;;;5.50;3.53;;;;;;;;;;6347205;22;20015;-92
2023/07/15 00:14:54;;;;;;;8.73;3.78;;;;;;;;;;6367008;22;20028;-92
2023/07/15 00:17:21;;;;;;;6.20;3.92;;;;;;;;;;6353224;22;20007;-92
2023/07/15 00:19:53;;;;;;;7.93;4.00;;;;;;;;;;6346326;22;20158;-93
2023/07/15 00:22:25;;;;;;;8.25;4.00;;;;;;;;;;6339855;22;20003;-93
2023/07/15 00:24:57;;;;;;;6.00;3.85;;;;;;;;;;6341819;22;20111;-94
2023/07/15 00:27:25;;;;;;;10.63;4.33;;;;;;;;;;6315443;22;20017;-95
2023/07/15 00:30:15;;;;;;;9.45;4.68;;;;;;;;;;6339621;22;20091;-93
2023/07/15 00:32:45;;;;;;;5.85;3.83;;;;;;;;;;6340258;22;20392;-93
2023/07/15 00:35:31;;;;;;;9.20;4.05;;;;;;;;;;6337117;22;20003;-93
2023/07/15 00:38:00;;;;;;;8.40;4.40;;;;;;;;;;6339740;22;20458;-94
2023/07/15 00:40:52;;;;;;;5.53;3.80;;;;;;;;;;6339252;22;20313;-93
2023/07/15 00:43:40;;;;;;;7.35;4.20;;;;;;;;;;6284789;22;20424;-93
2023/07/15 00:49:34;;;;;;;8.47;4.13;;;;;;;;;;6340642;22;20800;-95
2023/07/15 00:52:25;;;;;;;9.32;3.95;;;;;;;;;;6339153;22;20010;-93
2023/07/15 00:54:56;;;;;;;8.48;4.25;;;;;;;;;;6339370;22;20067;-94
2023/07/15 00:57:28;;;;;;;8.80;4.88;;;;;;;;;;6340045;22;20010;-94
2023/07/15 01:00:12;;;;;;;8.50;4.25;;;;;;;;;;6338470;22;20003;-92
2023/07/15 01:02:42;;;;;;;10.00;4.95;;;;;;;;;;6339835;22;20006;-94
2023/07/15 01:05:12;;;;;;;11.88;4.93;;;;;;;;;;6314308;22;20002;-94
2023/07/15 01:07:56;;;;;;;6.38;4.60;;;;;;;;;;6340100;22;20035;-94
2023/07/15 01:10:22;;;;;;;9.32;4.55;;;;;;;;;;6339496;22;20006;-92
2023/07/15 01:12:51;;;;;;;8.00;4.07;;;;;;;;;;6341956;22;20431;-93
2023/07/15 01:15:17;;;;;;;11.20;4.75;;;;;;;;;;6357870;22;19987;-93
2023/07/15 01:17:49;;;;;;;8.02;4.97;;;;;;;;;;6364506;22;19987;-94
2023/07/15 01:20:25;;;;;;;10.68;4.85;;;;;;;;;;6342546;22;20040;-93
2023/07/15 01:22:51;;;;;;;11.70;5.97;;;;;;;;;;6340851;22;20003;-94
2023/07/15 01:25:23;;;;;;;9.65;6.35;;;;;;;;;;6339820;22;20427;-93
2023/07/15 01:27:59;;;;;;;10.25;5.60;;;;;;;;;;6339019;22;19999;-93
2023/07/15 01:30:31;;;;;;;8.35;5.75;;;;;;;;;;6339064;22;20010;-93
2023/07/15 01:33:06;;;;;;;8.05;6.15;;;;;;;;;;6339459;22;20003;-93
2023/07/15 01:35:34;;;;;;;8.27;5.18;;;;;;;;;;6338879;22;20003;-93
2023/07/15 01:38:01;;;;;;;7.70;5.28;;;;;;;;;;6338866;22;20013;-94
2023/07/15 01:40:27;;;;;;;9.55;4.65;;;;;;;;;;6338701;22;20018;-92
2023/07/15 01:42:56;;;;;;;7.53;5.10;;;;;;;;;;6339937;22;19998;-94
2023/07/15 01:45:25;;;;;;;8.70;4.93;;;;;;;;;;6338866;22;20066;-94
2023/07/15 01:47:54;;;;;;;8.10;5.45;;;;;;;;;;6339568;22;19999;-94
2023/07/15 01:50:26;;;;;;;8.95;4.95;;;;;;;;;;6339382;22;20003;-94
2023/07/15 01:53:07;;;;;;;9.15;5.93;;;;;;;;;;6345100;22;20060;-94
2023/07/15 01:55:40;;;;;;;6.55;4.75;;;;;;;;;;6340534;22;20328;-92
2023/07/15 02:01:33;;;;;;;7.55;5.28;;;;;;;;;;6340562;22;20025;-93
2023/07/15 02:04:14;;;;;;;8.90;5.90;;;;;;;;;;6339516;22;20120;-93
2023/07/15 02:06:43;;;;;;;6.13;4.80;;;;;;;;;;6339116;22;20006;-94
2023/07/15 02:09:12;;;;;;;8.00;5.55;;;;;;;;;;6340608;22;20007;-93
2023/07/15 02:11:57;;;;;;;8.20;5.85;;;;;;;;;;6340273;22;20365;-95
2023/07/15 02:14:29;;;;;;;6.22;5.10;;;;;;;;;;6341030;22;20003;-92
2023/07/15 02:17:01;;;;;;;10.35;6.07;;;;;;;;;;6339549;22;20014;-94
2023/07/15 02:19:34;;;;;;;6.85;5.15;;;;;;;;;;6339618;22;20059;-93
2023/07/15 02:22:21;;;;;;;8.45;5.43;;;;;;;;;;6339214;22;20488;-92
2023/07/15 02:25:00;;;;;;;11.88;5.93;;;;;;;;;;6339204;22;20014;-93
2023/07/15 02:27:32;;;;;;;6.95;5.30;;;;;;;;;;6340615;22;20352;-93
2023/07/15 02:29:58;;;;;;;6.30;5.47;;;;;;;;;;6337612;22;20058;-94
2023/07/15 02:32:40;;;;;;;8.82;5.70;;;;;;;;;;6311620;22;20003;-95
2023/07/15 02:35:10;;;;;;;8.65;5.90;;;;;;;;;;6311103;22;20021;-94
2023/07/15 02:37:46;;;;;;;10.32;6.22;;;;;;;;;;6311380;22;20003;-94
2023/07/15 02:40:25;;;;;;;9.48;5.80;;;;;;;;;;6311072;22;20018;-93
2023/07/15 02:42:52;;;;;;;7.20;4.90;;;;;;;;;;6311808;22;20048;-93
2023/07/15 02:45:30;;;;;;;7.43;4.85;;;;;;;;;;6311845;22;20002;-93
2023/07/15 02:48:02;;;;;;;10.43;6.57;;;;;;;;;;6313492;22;20002;-94
2023/07/15 02:50:32;;;;;;;8.52;5.55;;;;;;;;;;6313653;22;20026;-93
2023/07/15 02:53:03;;;;;;;11.38;6.60;;;;;;;;;;6313600;22;19999;-93
2023/07/15 02:55:31;;;;;;;12.20;6.30;;;;;;;;;;6313191;22;20003;-94
2023/07/15 02:58:03;;;;;;;8.65;5.93;;;;;;;;;;6314020;22;20056;-95
2023/07/15 03:03:22;;;;;;;9.57;6.53;;;;;;;;;;6279229;22;20388;-94
2023/07/15 03:05:51;;;;;;;10.10;6.72;;;;;;;;;;6341995;22;20005;-95
2023/07/15 03:08:25;;;;;;;9.95;6.03;;;;;;;;;;6341642;22;20002;-93
2023/07/15 03:10:54;;;;;;;9.55;6.25;;;;;;;;;;6348028;22;20010;-93
2023/07/15 03:18:40;;;;;;;10.10;6.30;;;;;;;;;;6345614;22;20034;-95
2023/07/15 03:21:09;;;;;;;8.88;6.97;;;;;;;;;;6321160;22;20015;-92
2023/07/15 03:23:36;;;;;;;10.38;6.78;;;;;;;;;;6314823;22;20006;-92
2023/07/15 03:26:02;;;;;;;10.27;6.45;;;;;;;;;;6315579;22;20003;-92
2023/07/15 03:28:34;;;;;;;11.70;6.68;;;;;;;;;;6315011;22;20003;-93
2023/07/15 03:31:00;;;;;;;12.50;7.22;;;;;;;;;;6314351;22;20031;-93
2023/07/15 03:33:29;;;;;;;10.75;7.00;;;;;;;;;;6318615;22;20038;-94
2023/07/15 03:36:03;;;;;;;12.05;7.13;;;;;;;;;;6331561;22;20010;-94
2023/07/15 03:38:32;;;;;;;8.15;6.43;;;;;;;;;;6333851;22;20003;-93
2023/07/15 03:40:58;;;;;;;9.07;6.80;;;;;;;;;;6318007;22;20035;-94
2023/07/15 03:43:24;;;;;;;12.13;6.20;;;;;;;;;;6317113;22;20003;-94
2023/07/15 03:45:51;;;;;;;12.07;6.85;;;;;;;;;;6317774;22;20082;-95
2023/07/15 03:48:32;;;;;;;11.30;5.90;;;;;;;;;;6315324;22;20493;-95
2023/07/15 03:50:58;;;;;;;10.30;6.60;;;;;;;;;;6314509;22;20002;-93
2023/07/15 03:53:25;;;;;;;9.68;5.93;;;;;;;;;;6314478;22;20003;-94
2023/07/15 03:55:54;;;;;;;10.48;7.05;;;;;;;;;;6314266;22;19999;-94
2023/07/15 03:58:20;;;;;;;9.50;6.43;;;;;;;;;;6314732;22;19999;-93
2023/07/15 04:00:46;;;;;;;15.90;7.30;;;;;;;;;;6314745;22;20432;-94
2023/07/15 04:03:12;;;;;;;10.75;7.30;;;;;;;;;;6315471;22;20010;-94
2023/07/15 04:05:39;;;;;;;15.02;7.60;;;;;;;;;;6314910;22;20002;-94
2023/07/15 04:08:05;;;;;;;8.93;6.35;;;;;;;;;;6314678;22;20003;-94
2023/07/15 04:10:31;;;;;;;9.27;6.30;;;;;;;;;;6315791;22;20002;-93
2023/07/15 04:13:00;;;;;;;10.25;5.38;;;;;;;;;;6314882;22;20060;-94
2023/07/15 04:15:27;;;;;;;7.88;5.47;;;;;;;;;;6313907;22;20021;-95
2023/07/15 04:17:53;;;;;;;8.98;5.18;;;;;;;;;;6314889;22;20005;-94
2023/07/15 04:20:19;;;;;;;8.80;5.20;;;;;;;;;;6315364;22;20015;-94
2023/07/15 04:22:51;;;;;;;9.80;4.93;;;;;;;;;;6314321;22;20050;-95
2023/07/15 04:25:17;;;;;;;7.40;4.30;;;;;;;;;;6315011;22;20007;-94
2023/07/15 04:27:46;;;;;;;6.50;4.70;;;;;;;;;;6317001;22;19999;-96
2023/07/15 04:30:21;;;;;;;7.70;4.43;;;;;;;;;;6317530;22;20006;-93
2023/07/15 04:32:48;;;;;;;9.25;5.07;;;;;;;;;;6314600;22;20003;-93
2023/07/15 04:39:00;;;;;;;6.28;4.53;;;;;;;;;;6311148;22;20116;-93
2023/07/15 04:41:26;;;;;;;5.68;4.20;;;;;;;;;;6313833;22;20023;-94
2023/07/15 04:43:56;;;;;;;9.55;4.90;;;;;;;;;;6313641;22;20022;-95
2023/07/15 04:46:22;;;;;;;7.55;5.00;;;;;;;;;;6313534;22;20335;-92
2023/07/15 04:48:51;;;;;;;7.05;4.90;;;;;;;;;;6315255;22;20082;-94
2023/07/15 04:51:23;;;;;;;8.70;4.60;;;;;;;;;;6340631;22;19992;-94
2023/07/15 04:53:49;;;;;;;11.27;5.27;;;;;;;;;;6337779;22;20003;-94
2023/07/15 04:56:29;;;;;;;;;;;;;;;;;;;;;
2023/07/15 04:58:58;;;;;;;8.82;5.38;;;;;;;;;;6341768;22;20874;-94
2023/07/15 05:01:37;;;;;;;8.43;4.90;;;;;;;;;;6315081;22;20070;-95
2023/07/15 05:04:06;;;;;;;8.40;3.97;;;;;;;;;;6314546;22;20415;-94
2023/07/15 05:06:42;;;;;;;7.38;4.63;;;;;;;;;;6289212;22;20014;-94
2023/07/15 05:09:09;;;;;;;7.97;5.13;;;;;;;;;;6329874;22;19998;-95
2023/07/15 05:11:41;;;;;;;8.05;5.10;;;;;;;;;;6333631;22;20003;-94
2023/07/15 05:14:33;;;;;;;6.30;4.55;;;;;;;;;;6314551;22;20007;-94
2023/07/15 05:17:08;;;;;;;10.05;4.85;;;;;;;;;;6314060;22;20002;-94
2023/07/15 05:26:08;;;;;;;8.27;5.93;;;;;;;;;;6341189;22;20064;-93
2023/07/15 05:28:35;;;;;;;8.88;6.03;;;;;;;;;;6316077;22;20038;-92
2023/07/15 05:31:04;;;;;;;7.22;6.32;;;;;;;;;;6313511;22;19999;-93
2023/07/15 05:33:33;;;;;;;6.20;5.53;;;;;;;;;;6313246;22;20407;-93
2023/07/15 05:36:02;;;;;;;7.50;5.07;;;;;;;;;;6313495;22;20039;-93
2023/07/15 05:38:34;;;;;;;5.70;4.85;;;;;;;;;;6315096;22;20423;-95
2023/07/15 05:41:07;;;;;;;7.38;4.63;;;;;;;;;;6308935;22;20432;-93
2023/07/15 05:46:26;;;;;;;6.68;5.18;;;;;;;;;;6332119;22;20029;-94
2023/07/15 05:54:05;;;;;;;7.93;4.95;;;;;;;;;;6364033;22;20014;-96
2023/07/15 05:56:43;;;;;;;6.78;4.88;;;;;;;;;;6345155;22;20005;-95
2023/07/15 05:59:18;;;;;;;5.38;4.50;;;;;;;;;;6345009;22;20006;-94
2023/07/15 06:01:44;;;;;;;7.72;4.70;;;;;;;;;;6365985;22;20002;-94
2023/07/15 06:04:10;;;;;;;6.45;4.82;;;;;;;;;;6370901;22;20002;-94
2023/07/15 06:09:40;;;;;;;6.45;4.07;;;;;;;;;;6381545;22;20019;-93
2023/07/15 06:12:06;;;;;;;4.10;3.53;;;;;;;;;;6398691;22;20011;-92
2023/07/15 06:14:32;;;;;;;7.00;3.40;;;;;;;;;;6383798;22;20025;-92
2023/07/15 06:16:58;;;;;;;5.05;3.47;;;;;;;;;;6378086;22;20002;-93
2023/07/15 06:19:31;;;;;;;9.55;3.80;;;;;;;;;;6373297;22;20442;-94
2023/07/15 06:21:57;;;;;;;8.98;3.78;;;;;;;;;;6373411;22;20025;-95
2023/07/15 06:24:31;;;;;;;7.82;3.65;;;;;;;;;;6374879;22;19999;-94
2023/07/15 06:27:00;;;;;;;4.38;3.20;;;;;;;;;;6375081;22;20002;-93
2023/07/15 06:29:26;;;;;;;6.75;3.97;;;;;;;;;;6374067;22;20002;-93
2023/07/15 06:31:52;;;;;;;9.95;3.35;;;;;;;;;;6376770;22;20024;-93
2023/07/15 06:34:18;;;;;;;4.35;2.95;;;;;;;;;;6372550;22;19998;-91
2023/07/15 06:36:45;;;;;;;6.45;3.60;;;;;;;;;;6372431;22;20013;-89
2023/07/15 06:39:19;;;;;;;6.15;3.30;;;;;;;;;;6372617;22;19998;-90
2023/07/15 06:41:45;;;;;;;4.63;2.90;;;;;;;;;;6372354;22;20377;-93
2023/07/15 06:44:17;;;;;;;5.30;2.80;;;;;;;;;;6372321;22;20003;-91
2023/07/15 06:46:46;;;;;;;5.22;2.80;;;;;;;;;;6372527;22;20022;-89
2023/07/15 06:49:13;;;;;;;5.47;2.70;;;;;;;;;;6373003;22;20002;-90
2023/07/15 06:51:42;;;;;;;4.00;2.40;;;;;;;;;;6373599;22;20048;-90
2023/07/15 06:54:31;;;;;;;3.70;2.40;;;;;;;;;;6372802;22;20015;-92
2023/07/15 06:56:58;;;;;;;5.28;2.90;;;;;;;;;;6373743;22;20003;-91
2023/07/15 06:59:24;;;;;;;4.57;3.63;;;;;;;;;;6372621;22;20014;-94
2023/07/15 07:01:50;;;;;;;6.00;3.40;;;;;;;;;;6372692;22;20433;-90
2023/07/15 07:04:30;;;;;;;4.95;2.85;;;;;;;;;;6375991;22;19998;-96
2023/07/15 07:07:05;;;;;;;5.60;3.20;;;;;;;;;;6323806;22;20002;-92
2023/07/15 07:09:34;;;;;;;4.55;2.95;;;;;;;;;;6386862;22;19998;-92
2023/07/15 07:12:10;;;;;;;3.95;1.90;;;;;;;;;;6384321;22;20014;-93
2023/07/15 07:14:42;;;;;;;4.15;2.03;;;;;;;;;;6376227;22;20017;-96
2023/07/15 07:17:34;;;;;;;4.35;2.03;;;;;;;;;;6374202;22;20040;-95
2023/07/15 07:20:00;;;;;;;6.55;2.00;;;;;;;;;;6283407;22;20011;-96
2023/07/15 07:22:27;;;;;;;5.13;2.15;;;;;;;;;;6256128;22;20011;-89
2023/07/15 07:24:53;;;;;;;3.85;2.58;;;;;;;;;;6320991;22;20006;-91
2023/07/15 07:27:19;;;;;;;2.85;2.17;;;;;;;;;;6383129;22;20028;-93
2023/07/15 07:29:58;;;;;;;4.18;2.30;;;;;;;;;;6373157;22;20373;-93
2023/07/15 07:32:26;;;;;;;5.88;2.50;;;;;;;;;;6377743;22;20003;-91
2023/07/15 07:34:58;;;;;;;6.00;2.72;;;;;;;;;;6394041;22;20009;-88
2023/07/15 07:37:27;;;;;;;5.10;2.78;;;;;;;;;;6378606;22;20026;-88
2023/07/15 07:39:53;;;;;;;5.93;2.30;;;;;;;;;;6371688;22;20002;-93
2023/07/15 07:42:20;;;;;;;3.15;2.20;;;;;;;;;;6372113;22;20007;-89
2023/07/15 07:44:46;;;;;;;4.45;2.28;;;;;;;;;;6371888;22;19999;-93
2023/07/15 07:47:13;;;;;;;3.17;1.92;;;;;;;;;;6371573;22;20006;-92
2023/07/15 07:49:42;;;;;;;2.63;1.92;;;;;;;;;;6371422;22;20450;-87
2023/07/15 07:52:12;;;;;;;3.45;2.30;;;;;;;;;;6371380;22;20002;-92
2023/07/15 07:54:40;;;;;;;2.88;2.05;;;;;;;;;;6345407;22;20006;-91
2023/07/15 07:57:06;;;;;;;3.72;2.15;;;;;;;;;;6345916;22;20305;-95
2023/07/15 07:59:32;;;;;;;5.53;2.30;;;;;;;;;;6346746;22;19999;-95
2023/07/15 08:01:58;;;;;;;3.05;1.67;;;;;;;;;;6351273;22;20017;-94
2023/07/15 08:04:27;;;;;;;3.53;1.98;;;;;;;;;;6345260;22;20002;-94
2023/07/15 08:06:56;;;;;;;4.13;1.70;;;;;;;;;;6345676;22;20033;-94
2023/07/15 08:09:32;;;;;;;5.03;1.95;;;;;;;;;;6350365;22;20309;-96
2023/07/15 08:12:00;;;;;;;3.88;1.92;;;;;;;;;;6373096;22;20346;-95
2023/07/15 08:14:38;;;;;;;2.47;1.83;;;;;;;;;;6348835;22;20006;-95
2023/07/15 08:17:05;;;;;;;2.83;1.73;;;;;;;;;;6345752;22;20009;-93
2023/07/15 08:19:31;;;;;;;9.13;1.85;;;;;;;;;;6349121;22;20022;-95
2023/07/15 08:22:07;;;;;;;4.28;1.92;;;;;;;;;;6348769;22;20036;-93
2023/07/15 08:24:39;;;;;;;3.88;1.70;;;;;;;;;;6345907;22;20002;-94
2023/07/15 08:27:05;;;;;;;5.90;1.75;;;;;;;;;;6346906;22;20032;-96
2023/07/15 08:29:32;;;;;;;5.32;1.80;;;;;;;;;;6345829;22;20013;-95
2023/07/15 08:31:58;;;;;;;5.90;1.80;;;;;;;;;;6346159;22;20009;-93
2023/07/15 08:34:39;;;;;;;6.25;2.00;;;;;;;;;;6348938;22;20002;-96
2023/07/15 08:37:24;;;;;;;3.25;1.50;;;;;;;;;;6346426;22;20018;-96
2023/07/15 08:39:57;;;;;;;6.05;1.60;;;;;;;;;;6345183;22;20090;-96
2023/07/15 08:42:36;;;;;;;4.47;1.52;;;;;;;;;;6345377;22;20051;-96
2023/07/15 08:51:12;;;;;;;4.35;1.90;;;;;;;;;;6249678;23;20023;-94
2023/07/15 08:53:46;;;;;;;2.75;1.58;;;;;;;;;;6212765;23;20059;-94
2023/07/15 09:02:26;;;;;;;4.60;1.60;;;;;;;;;;6336298;22;20155;-91
2023/07/15 09:04:59;;;;;;;6.18;1.95;;;;;;;;;;6383883;22;20028;-92
2023/07/15 09:07:34;;;;;;;2.50;1.60;;;;;;;;;;6336128;22;20002;-91
2023/07/15 09:10:18;;;;;;;3.60;1.80;;;;;;;;;;6364633;22;20002;-93
2023/07/15 09:12:51;;;;;;;4.60;1.77;;;;;;;;;;6353747;22;20066;-96
2023/07/15 09:15:17;;;;;;;6.65;2.13;;;;;;;;;;6342726;22;20014;-95
2023/07/15 09:22:59;;;;;;;2.95;1.75;;;;;;;;;;6348856;22;20034;-93
2023/07/15 09:25:28;;;;;;;4.53;2.00;;;;;;;;;;6376176;22;20006;-95
2023/07/15 09:31:07;;;;;;;6.45;2.00;;;;;;;;;;6397546;22;20028;-94
2023/07/15 09:33:40;;;;;;;3.63;1.80;;;;;;;;;;6381884;22;20006;-95
2023/07/15 09:36:12;;;;;;;4.32;2.10;;;;;;;;;;6380189;22;20374;-91
2023/07/15 09:41:47;;;;;;;4.03;1.90;;;;;;;;;;6409746;22;19909;-95
2023/07/15 09:44:13;;;;;;;5.20;2.00;;;;;;;;;;6373088;22;19986;-95
2023/07/15 09:56:09;;;;;;;5.72;2.13;;;;;;;;;;6334799;22;20019;-96
2023/07/15 09:58:55;;;;;;;2.50;1.70;;;;;;;;;;6376799;22;20006;-92
2023/07/15 10:10:01;;;;;;;3.15;1.60;;;;;;;;;;6373995;22;20077;-92
2023/07/15 10:21:09;;;;;;;4.43;1.70;;;;;;;;;;6374601;22;20021;-93
2023/07/15 10:50:03;;;;;;;4.63;1.88;;;;;;;;;;6341632;22;20006;-96
2023/07/15 11:20:06;;;;;;;;;;;;;;;;;;6372430;22;20081;-95
2023/07/15 11:36:53;;;;;;;2.80;1.50;;;;;;;;;;6389567;22;20080;-95
2023/07/15 11:39:44;;;;;;;5.90;1.80;;;;;;;;;;6352740;22;20041;-96
2023/07/15 11:45:27;;;;;;;5.68;1.75;;;;;;;;;;6314610;22;20009;-96
2023/07/15 11:47:57;;;;;;;5.53;1.92;;;;;;;;;;6318844;22;20014;-96
2023/07/15 11:58:44;;;;;;;4.47;1.85;;;;;;;;;;6389475;22;20481;-96
2023/07/15 12:13:08;;;;;;;2.70;1.58;;;;;;;;;;6396797;22;20037;-96
2023/07/15 12:24:41;;;;;;;7.32;1.83;;;;;;;;;;6409822;22;20017;-93
2023/07/15 12:27:14;;;;;;;5.65;1.83;;;;;;;;;;6385777;22;20013;-94
2023/07/15 12:30:06;;;;;;;5.25;1.65;;;;;;;;;;6384645;22;20453;-94
2023/07/15 12:32:40;;;;;;;3.05;1.63;;;;;;;;;;6283446;22;20008;-93
2023/07/15 12:35:13;;;;;;;;;;;;;;;;;;6364048;22;20415;-93
2023/07/15 12:37:39;;;;;;;;;;;;;;;;;;6382125;22;19909;-93
2023/07/15 12:40:10;;;;;;;4.07;1.58;;;;;;;;;;6350506;22;19930;-94
2023/07/15 12:42:36;;;;;;;3.50;1.70;;;;;;;;;;6373902;22;19998;-93
2023/07/15 12:45:11;;;;;;;4.32;1.55;;;;;;;;;;6370886;22;20428;-93
2023/07/15 12:47:43;;;;;;;6.00;1.70;;;;;;;;;;6370968;22;20002;-90
2023/07/15 12:50:14;;;;;;;2.45;1.75;;;;;;;;;;6370965;22;20140;-94
2023/07/15 12:52:40;;;;;;;3.53;1.45;;;;;;;;;;6371327;22;20006;-92
2023/07/15 12:55:07;;;;;;;4.75;1.70;;;;;;;;;;6340145;22;20052;-90
2023/07/15 12:57:33;;;;;;;3.25;1.65;;;;;;;;;;6313275;22;20034;-94
2023/07/15 13:00:05;;;;;;;2.90;1.70;;;;;;;;;;6315798;22;20082;-96
2023/07/15 13:05:36;;;;;;;7.70;1.73;;;;;;;;;;6363815;22;20046;-95
2023/07/15 13:08:06;;;;;;;6.60;1.77;;;;;;;;;;6379112;22;20005;-94
2023/07/15 13:10:33;;;;;;;4.63;1.75;;;;;;;;;;6376874;22;20062;-90
2023/07/15 13:12:59;;;;;;;2.78;1.60;;;;;;;;;;6378322;22;19998;-93
2023/07/15 13:15:26;;;;;;;3.33;1.80;;;;;;;;;;6379840;22;20006;-94
2023/07/15 13:18:02;;;;;;;5.32;1.80;;;;;;;;;;6389809;22;19994;-95
2023/07/15 13:20:43;;;;;;;3.80;1.55;;;;;;;;;;6392319;22;20049;-95
2023/07/15 13:23:10;;;;;;;3.67;1.65;;;;;;;;;;6389907;22;20007;-96
2023/07/15 13:25:55;;;;;;;3.03;1.70;;;;;;;;;;6388241;22;20084;-96
2023/07/15 13:28:54;;;;;;;3.47;1.90;;;;;;;;;;6387153;22;20046;-94
2023/07/15 13:31:23;;;;;;;4.13;1.60;;;;;;;;;;6278144;22;20476;-92
2023/07/15 13:33:55;;;;;;;5.50;2.05;;;;;;;;;;6294259;22;20006;-96
2023/07/15 13:36:27;;;;;;;6.30;1.98;;;;;;;;;;6377596;22;20002;-93
2023/07/15 13:38:53;;;;;;;2.88;1.80;;;;;;;;;;6375948;22;20481;-94
2023/07/15 13:41:28;;;;;;;3.25;1.85;;;;;;;;;;6375743;22;20006;-93
2023/07/15 13:44:03;;;;;;;4.70;1.80;;;;;;;;;;6376016;22;20075;-93
2023/07/15 13:46:32;;;;;;;2.85;1.75;;;;;;;;;;6376464;22;20009;-92
2023/07/15 13:49:01;;;;;;;4.07;1.70;;;;;;;;;;6375721;22;19994;-94
2023/07/15 13:51:39;;;;;;;3.30;1.70;;;;;;;;;;6376461;22;20010;-93
2023/07/15 13:54:11;;;;;;;3.08;1.80;;;;;;;;;;6354737;22;20013;-92
2023/07/15 14:02:46;;;;;;;10.73;6.30;;;;;;;;;;6373019;22;20054;-93
2023/07/15 14:05:40;;;;;;;4.40;2.30;;;;;;;;;;6321906;22;20010;-95
2023/07/15 14:08:29;;;;;;;4.80;2.00;;;;;;;;;;6363979;22;20006;-96
2023/07/15 14:10:55;;;;;;;3.40;1.88;;;;;;;;;;6345289;22;20018;-94
2023/07/15 14:13:57;;;;;;;4.10;1.90;;;;;;;;;;6344357;22;20032;-93
2023/07/15 14:16:14;;;;;;;4.53;1.83;;;;;;;;;;6364437;22;20009;-93
2023/07/15 14:18:50;;;;;;;;;;;;;;;;;;;;;
2023/07/15 14:21:16;;;;;;;5.28;1.98;;;;;;;;;;6371990;22;20109;-93
2023/07/15 14:24:03;;;;;;;3.50;1.63;;;;;;;;;;6344341;22;20002;-94
2023/07/15 14:26:30;;;;;;;6.38;1.90;;;;;;;;;;6344080;22;20038;-92
2023/07/15 14:29:09;;;;;;;3.60;1.67;;;;;;;;;;6344806;22;20051;-92
2023/07/15 14:31:36;;;;;;;5.97;2.22;;;;;;;;;;6364559;22;20007;-94
2023/07/15 14:34:05;;;;;;;2.80;1.60;;;;;;;;;;6336972;22;20035;-94
2023/07/15 14:36:34;;;;;;;6.40;2.00;;;;;;;;;;6344399;22;20003;-93
2023/07/15 14:39:00;;;;;;;2.80;1.70;;;;;;;;;;6346663;22;20037;-93
2023/07/15 14:41:38;;;;;;;4.97;1.63;;;;;;;;;;6348736;22;20030;-93
2023/07/15 14:44:04;;;;;;;5.85;1.83;;;;;;;;;;6345294;22;20051;-94
2023/07/15 14:46:30;;;;;;;4.55;1.80;;;;;;;;;;6345947;22;20115;-94
2023/07/15 14:49:36;;;;;;;;;;;;;;;;;;;;;
2023/07/15 14:52:33;;;;;;;4.82;1.77;;;;;;;;;;6248057;23;20433;-94
2023/07/15 14:55:05;;;;;;;3.80;1.60;;;;;;;;;;6243666;23;20004;-94
2023/07/15 15:00:30;;;;;;;3.63;1.70;;;;;;;;;;6380333;22;20016;-90
2023/07/15 15:02:56;;;;;;;4.38;1.85;;;;;;;;;;6398084;22;19986;-94
2023/07/15 15:05:28;;;;;;;5.15;1.90;;;;;;;;;;6386081;22;20002;-93
2023/07/15 15:07:54;;;;;;;4.30;2.00;;;;;;;;;;6378498;22;20006;-94
2023/07/15 15:10:23;;;;;;;9.50;2.20;;;;;;;;;;6372338;22;20018;-93
2023/07/15 15:13:06;;;;;;;;;;;;;;;;;;;;;
2023/07/15 15:15:34;;;;;;;;;;;;;;;;;;6377634;22;20073;-95
2023/07/15 15:21:03;;;;;;;3.42;1.98;;;;;;;;;;6371871;22;20064;-94
2023/07/15 15:23:42;;;;;;;6.75;1.80;;;;;;;;;;6333090;22;20045;-92
2023/07/15 15:26:39;;;;;;;;;;;;;;;;;;;;;
2023/07/15 15:32:24;;;;;;;4.43;1.70;;;;;;;;;;6218562;23;20015;-93
2023/07/15 15:35:00;;;;;;;;;;;;;;;;;;;;;
2023/07/15 15:40:32;;;;;;;5.75;2.00;;;;;;;;;;6153041;23;20024;-94
2023/07/15 15:42:58;;;;;;;9.07;3.85;;;;;;;;;;6211886;23;20008;-88
2023/07/15 15:45:27;;;;;;;7.50;3.67;;;;;;;;;;6247034;23;20138;-87
2023/07/15 15:47:59;;;;;;;4.88;3.05;;;;;;;;;;6312419;22;20007;-94
2023/07/15 15:50:26;;;;;;;4.07;1.90;;;;;;;;;;6340945;22;20015;-92
2023/07/15 15:52:52;;;;;;;6.28;3.58;;;;;;;;;;6313819;22;20005;-88
2023/07/15 15:55:21;;;;;;;10.73;3.97;;;;;;;;;;6313562;22;20041;-89
2023/07/15 15:57:47;;;;;;;8.90;2.55;;;;;;;;;;6313714;22;20390;-89
2023/07/15 16:00:19;;;;;;;9.68;2.85;;;;;;;;;;6313467;22;20082;-89
2023/07/15 16:02:45;;;;;;;8.52;2.60;;;;;;;;;;6313622;22;20439;-89
2023/07/15 16:05:13;;;;;;;7.95;2.50;;;;;;;;;;6313384;22;20003;-88
2023/07/15 16:07:40;;;;;;;4.60;2.10;;;;;;;;;;6313969;22;20085;-92
2023/07/15 16:10:06;;;;;;;4.45;1.85;;;;;;;;;;6313581;22;20046;-89
2023/07/15 16:12:32;;;;;;;4.43;2.05;;;;;;;;;;6313412;22;20030;-90
2023/07/15 16:15:01;;;;;;;12.38;1.90;;;;;;;;;;6314031;22;20006;-90
2023/07/15 16:17:27;;;;;;;6.75;2.30;;;;;;;;;;6313843;22;20132;-91
2023/07/15 16:19:53;;;;;;;14.38;2.35;;;;;;;;;;6313236;22;20006;-88
2023/07/15 16:22:27;;;;;;;14.02;2.40;;;;;;;;;;6313457;22;20015;-89
2023/07/15 16:28:11;;;;;;;5.00;2.10;;;;;;;;;;6220352;23;20067;-88
2023/07/15 16:30:38;;;;;;;5.15;2.17;;;;;;;;;;6191794;23;20091;-89
2023/07/15 16:36:09;;;;;;;;;;;;;;;;;;6217357;23;20035;-88
2023/07/15 16:38:37;;;;;;;7.47;2.00;;;;;;;;;;6306718;22;19925;-90
2023/07/15 16:41:03;;;;;;;8.18;2.33;;;;;;;;;;6313652;22;20003;-89
2023/07/15 16:43:30;;;;;;;20.30;2.92;;;;;;;;;;6313369;22;20007;-90
2023/07/15 16:45:56;;;;;;;4.80;2.10;;;;;;;;;;6313415;22;20006;-95
2023/07/15 16:48:22;;;;;;;5.85;2.10;;;;;;;;;;6314419;22;20011;-88
2023/07/15 16:50:48;;;;;;;5.78;2.03;;;;;;;;;;6314194;22;20036;-91
2023/07/15 16:53:18;;;;;;;8.73;2.50;;;;;;;;;;6313860;22;20030;-96
2023/07/15 16:55:44;;;;;;;6.15;2.30;;;;;;;;;;6313059;22;20063;-89
2023/07/15 16:58:25;;;;;;;;;;;;;;;;;;;;;
2023/07/15 17:00:52;;;;;;;11.33;2.50;;;;;;;;;;6342175;22;20090;-93
2023/07/15 17:03:19;;;;;;;8.90;2.42;;;;;;;;;;6315057;22;20226;-95
2023/07/15 17:06:00;;;;;;;11.98;2.58;;;;;;;;;;6351011;22;20327;-96
2023/07/15 17:08:36;;;;;;;;;;;;;;;;;;;;;
2023/07/15 17:14:02;;;;;;;47.50;6.10;;;;;;;;;;6311566;22;20010;-95
2023/07/15 17:16:33;;;;;;;17.00;3.28;;;;;;;;;;6287325;22;20357;-96
2023/07/15 17:19:14;;;;;;;21.77;2.90;;;;;;;;;;6287579;22;19999;-96
2023/07/15 17:30:05;;;;;;;4.13;1.83;;;;;;;;;;6350188;22;20023;-96
2023/07/15 17:32:34;;;;;;;4.85;2.10;;;;;;;;;;6316462;22;20090;-96
2023/07/15 17:35:03;;;;;;;8.80;2.60;;;;;;;;;;6315922;22;20002;-92
2023/07/15 17:37:30;;;;;;;16.50;2.88;;;;;;;;;;6314630;22;20003;-93
2023/07/15 17:39:59;;;;;;;24.95;3.53;;;;;;;;;;6315469;22;19999;-95
2023/07/15 17:42:25;;;;;;;12.45;2.90;;;;;;;;;;6313847;22;20013;-92
2023/07/15 17:47:49;;;;;;;3.50;2.30;;;;;;;;;;6277279;22;20006;-93
2023/07/15 17:50:22;;;;;;;5.70;2.03;;;;;;;;;;6313107;22;20013;-94
2023/07/15 17:53:06;;;;;;;6.18;2.60;;;;;;;;;;6313211;22;20006;-94
2023/07/15 17:55:39;;;;;;;10.10;2.95;;;;;;;;;;6305067;22;20005;-92
2023/07/15 17:58:05;;;;;;;6.95;2.60;;;;;;;;;;6339210;22;20001;-94
2023/07/15 18:00:40;;;;;;;7.57;2.63;;;;;;;;;;6333664;22;20046;-94
2023/07/15 18:03:24;;;;;;;6.50;2.58;;;;;;;;;;6328826;22;20014;-93
2023/07/15 18:05:59;;;;;;;4.00;2.50;;;;;;;;;;6312891;22;20007;-96
2023/07/15 18:08:28;;;;;;;5.43;2.85;;;;;;;;;;6312806;22;19998;-94
2023/07/15 18:11:03;;;;;;;9.45;2.90;;;;;;;;;;6312723;22;20011;-95
2023/07/15 18:13:37;;;;;;;7.22;2.63;;;;;;;;;;6312687;22;19999;-95
2023/07/15 18:16:03;;;;;;;8.48;2.90;;;;;;;;;;6304451;22;20010;-94
2023/07/15 18:18:39;;;;;;;8.85;2.55;;;;;;;;;;6316590;22;19999;-96
2023/07/15 18:21:35;;;;;;;8.55;2.80;;;;;;;;;;6317673;22;20014;-95
2023/07/15 18:24:17;;;;;;;;;;;;;;;;;;;;;
2023/07/15 18:26:53;;;;;;;6.63;3.70;;;;;;;;;;6226697;23;20071;-96
2023/07/15 18:32:57;;;;;;;13.25;5.20;;;;;;;;;;6343615;22;20021;-94
2023/07/15 18:35:26;;;;;;;11.68;4.25;;;;;;;;;;6345480;22;19999;-93
2023/07/15 18:37:58;;;;;;;9.52;3.88;;;;;;;;;;6319204;22;20065;-94
2023/07/15 18:40:29;;;;;;;8.05;3.30;;;;;;;;;;6316762;22;20439;-95
2023/07/15 18:43:01;;;;;;;6.57;3.65;;;;;;;;;;6316514;22;20432;-95
2023/07/15 18:45:33;;;;;;;8.30;3.60;;;;;;;;;;6315157;22;20018;-95
2023/07/15 18:47:59;;;;;;;5.13;3.42;;;;;;;;;;6315337;22;20009;-95
2023/07/15 18:50:46;;;;;;;8.35;3.58;;;;;;;;;;6317587;22;20006;-96
2023/07/15 18:53:18;;;;;;;12.88;4.15;;;;;;;;;;6315080;22;20448;-95
2023/07/15 18:55:51;;;;;;;7.43;3.40;;;;;;;;;;6314915;22;20309;-91
2023/07/15 18:58:26;;;;;;;6.63;3.20;;;;;;;;;;6314657;22;20030;-95
2023/07/15 19:00:56;;;;;;;7.20;3.35;;;;;;;;;;6315100;22;20006;-96
2023/07/15 19:03:22;;;;;;;6.28;3.50;;;;;;;;;;6314618;22;20003;-94
2023/07/15 19:05:51;;;;;;;8.00;3.20;;;;;;;;;;6315806;22;20007;-93
2023/07/15 19:08:20;;;;;;;5.00;2.80;;;;;;;;;;6317092;22;20002;-96
2023/07/15 19:10:55;;;;;;;5.75;2.95;;;;;;;;;;6328731;22;20005;-94